Time;durP1;ratioP1;P1;durP2;ratioP2;P2;SDS_P1;SDS_P2;PMS_P1;PMS_P2;Temp;Humidity;BMP_temperature;BMP_pressure;BME280_temperature;BME280_humidity;BME280_pressure;Samples;Min_cycle;Max_cycle;Signal;HPM_P1;HPM_P2
2021/10/18 00:01:33;;;;;;;5.68;0.95;;;8.60;99.90;;;;;;5093707;28;20024;-73
2021/10/18 00:03:59;;;;;;;3.65;1.20;;;8.70;99.90;;;;;;5093743;28;20024;-73
2021/10/18 00:06:26;;;;;;;0.28;0.28;;;9.00;99.90;;;;;;5093478;28;20016;-73
2021/10/18 00:08:51;;;;;;;0.30;0.30;;;8.90;99.90;;;;;;5093462;28;20031;-73
2021/10/18 00:11:19;;;;;;;0.30;0.30;;;9.00;99.90;;;;;;5093511;28;20396;-73
2021/10/18 00:13:45;;;;;;;0.30;0.30;;;9.00;99.90;;;;;;5092245;28;20024;-73
2021/10/18 00:16:12;;;;;;;0.30;0.30;;;8.90;99.90;;;;;;5093251;28;20027;-73
2021/10/18 00:18:37;;;;;;;0.20;0.20;;;8.90;99.90;;;;;;5093327;28;20071;-73
2021/10/18 00:21:03;;;;;;;0.30;0.30;;;9.10;99.90;;;;;;5092057;28;20471;-73
2021/10/18 00:23:29;;;;;;;0.30;0.30;;;9.10;99.90;;;;;;5093302;28;20391;-73
2021/10/18 00:25:55;;;;;;;0.30;0.30;;;9.00;99.90;;;;;;5091831;28;20063;-73
2021/10/18 00:28:21;;;;;;;0.50;0.50;;;9.00;99.90;;;;;;5093110;28;20116;-73
2021/10/18 00:30:47;;;;;;;0.20;0.20;;;9.10;99.90;;;;;;5093293;28;20024;-73
2021/10/18 00:33:12;;;;;;;0.60;0.60;;;9.00;99.90;;;;;;5092350;28;20157;-73
2021/10/18 00:35:38;;;;;;;0.73;0.73;;;9.00;99.90;;;;;;5074664;28;20111;-73
2021/10/18 00:38:04;;;;;;;0.20;0.20;;;8.90;99.90;;;;;;5091723;28;20114;-73
2021/10/18 00:40:30;;;;;;;0.20;0.20;;;8.80;99.90;;;;;;5093020;28;20028;-73
2021/10/18 00:42:56;;;;;;;0.30;0.30;;;8.90;99.90;;;;;;5092841;28;20070;-73
2021/10/18 00:45:22;;;;;;;1.00;1.00;;;8.80;99.90;;;;;;5092684;28;20031;-74
2021/10/18 00:47:48;;;;;;;0.20;0.20;;;8.60;99.90;;;;;;5092580;28;20095;-73
2021/10/18 00:50:14;;;;;;;0.20;0.20;;;8.60;99.90;;;;;;5092865;28;20030;-73
2021/10/18 00:52:41;;;;;;;0.30;0.30;;;8.60;99.90;;;;;;5092826;28;20090;-73
2021/10/18 00:55:07;;;;;;;0.30;0.30;;;8.70;99.90;;;;;;5091273;28;20046;-73
2021/10/18 00:57:34;;;;;;;0.30;0.30;;;8.80;99.90;;;;;;5092636;28;20374;-73
2021/10/18 01:00:00;;;;;;;0.20;0.20;;;8.80;99.90;;;;;;5091276;28;20028;-73
2021/10/18 01:02:26;;;;;;;0.63;0.50;;;8.70;99.90;;;;;;5074405;28;20024;-73
2021/10/18 01:04:52;;;;;;;0.20;0.20;;;8.70;99.90;;;;;;5091051;28;20024;-73
2021/10/18 01:07:18;;;;;;;0.30;0.30;;;8.70;99.90;;;;;;5092413;28;20058;-73
2021/10/18 01:09:44;;;;;;;0.25;0.25;;;8.50;99.90;;;;;;5091192;28;20479;-73
2021/10/18 01:12:10;;;;;;;0.20;0.20;;;8.60;99.90;;;;;;5092473;28;20024;-73
2021/10/18 01:14:36;;;;;;;0.40;0.40;;;8.60;99.90;;;;;;5090948;28;20024;-73
2021/10/18 01:17:02;;;;;;;0.40;0.40;;;8.60;99.90;;;;;;5074193;28;20025;-73
2021/10/18 01:19:28;;;;;;;0.30;0.30;;;8.60;99.90;;;;;;5074200;28;20121;-73
2021/10/18 01:22:00;;;;;;;0.30;0.30;;;8.50;99.90;;;;;;5091033;28;20123;-73
2021/10/18 01:24:25;;;;;;;;;;;8.50;99.90;;;;;;5092492;28;20031;-73
2021/10/18 01:26:51;;;;;;;0.30;0.30;;;8.50;99.90;;;;;;5092170;28;20276;-73
2021/10/18 01:29:17;;;;;;;0.20;0.20;;;8.50;99.90;;;;;;5092113;28;20024;-73
2021/10/18 01:31:43;;;;;;;0.25;0.25;;;8.30;99.90;;;;;;5092169;28;20475;-73
2021/10/18 01:34:08;;;;;;;0.20;0.20;;;8.20;99.90;;;;;;5092136;28;20098;-73
2021/10/18 01:36:35;;;;;;;0.20;0.20;;;8.30;99.90;;;;;;5090625;28;20070;-73
2021/10/18 01:39:01;;;;;;;0.30;0.30;;;8.30;99.90;;;;;;5091967;28;20479;-73
2021/10/18 01:41:26;;;;;;;0.20;0.20;;;8.50;99.90;;;;;;5092117;28;20020;-73
2021/10/18 01:43:52;;;;;;;0.40;0.40;;;8.50;99.90;;;;;;5091900;28;20046;-73
2021/10/18 01:46:18;;;;;;;0.43;0.43;;;8.50;99.90;;;;;;5073695;28;20031;-73
2021/10/18 01:48:43;;;;;;;0.20;0.20;;;8.50;99.90;;;;;;5091773;28;20545;-73
2021/10/18 01:51:10;;;;;;;0.20;0.20;;;8.70;99.90;;;;;;5092043;28;20070;-73
2021/10/18 01:53:37;;;;;;;0.30;0.30;;;8.70;99.90;;;;;;5091863;28;20082;-73
2021/10/18 01:56:04;;;;;;;0.30;0.30;;;8.60;99.90;;;;;;5091626;28;20073;-73
2021/10/18 01:58:31;;;;;;;0.20;0.20;;;8.70;99.90;;;;;;5091863;28;20024;-73
2021/10/18 02:01:02;;;;;;;0.30;0.30;;;8.80;99.90;;;;;;5091873;28;20495;-73
2021/10/18 02:03:28;;;;;;;1.40;1.40;;;8.80;99.90;;;;;;5091842;28;20028;-73
2021/10/18 02:05:54;;;;;;;0.30;0.30;;;8.80;99.90;;;;;;5090365;28;20099;-73
2021/10/18 02:08:19;;;;;;;0.30;0.30;;;8.80;99.90;;;;;;5090315;28;20158;-73
2021/10/18 02:10:45;;;;;;;0.20;0.20;;;8.70;99.90;;;;;;5090178;28;20020;-73
2021/10/18 02:13:11;;;;;;;0.60;0.60;;;8.50;99.90;;;;;;5073544;28;20507;-73
2021/10/18 02:15:37;;;;;;;0.20;0.20;;;8.50;99.90;;;;;;5073392;28;20028;-73
2021/10/18 02:18:03;;;;;;;0.55;0.55;;;8.40;99.90;;;;;;5090383;28;20031;-73
2021/10/18 02:20:29;;;;;;;0.20;0.20;;;8.20;99.90;;;;;;5091680;28;20032;-75
2021/10/18 02:22:55;;;;;;;0.20;0.20;;;8.40;99.90;;;;;;5090442;28;20028;-73
2021/10/18 02:25:21;;;;;;;0.20;0.20;;;8.20;99.90;;;;;;5090095;28;20024;-73
2021/10/18 02:27:47;;;;;;;0.20;0.20;;;8.30;99.90;;;;;;5090241;28;20078;-73
2021/10/18 02:30:14;;;;;;;1.58;0.75;;;8.30;99.90;;;;;;5091651;28;20066;-73
2021/10/18 02:32:40;;;;;;;0.20;0.20;;;8.30;99.90;;;;;;5091630;28;20095;-73
2021/10/18 02:35:10;;;;;;;0.47;0.47;;;8.40;99.90;;;;;;5091352;28;20511;-73
2021/10/18 02:37:37;;;;;;;0.30;0.30;;;8.20;99.90;;;;;;5090244;28;20035;-73
2021/10/18 02:40:04;;;;;;;0.30;0.30;;;8.00;99.90;;;;;;5091403;28;20032;-73
2021/10/18 02:42:30;;;;;;;0.28;0.28;;;7.90;99.90;;;;;;5091481;28;20085;-73
2021/10/18 02:44:56;;;;;;;0.50;0.50;;;8.00;99.90;;;;;;5091230;28;20024;-73
2021/10/18 02:47:22;;;;;;;0.30;0.30;;;8.00;99.90;;;;;;5090002;28;20081;-73
2021/10/18 02:49:47;;;;;;;0.30;0.30;;;8.00;99.90;;;;;;5091406;28;20072;-73
2021/10/18 02:52:13;;;;;;;0.30;0.30;;;8.10;99.90;;;;;;5091490;28;20092;-73
2021/10/18 02:54:39;;;;;;;0.30;0.30;;;8.20;99.90;;;;;;5091302;28;20024;-73
2021/10/18 02:57:05;;;;;;;0.25;0.25;;;8.20;99.90;;;;;;5095093;28;20016;-73
2021/10/18 02:59:30;;;;;;;0.22;0.22;;;8.30;99.90;;;;;;5093719;28;20020;-73
2021/10/18 03:01:56;;;;;;;5.85;5.47;;;8.20;99.90;;;;;;5094904;28;20028;-73
2021/10/18 03:04:22;;;;;;;0.20;0.20;;;8.30;99.90;;;;;;5076796;28;20055;-73
2021/10/18 03:06:48;;;;;;;0.32;0.32;;;8.40;99.90;;;;;;5094758;28;20028;-73
2021/10/18 03:09:13;;;;;;;0.30;0.30;;;8.40;99.90;;;;;;5094520;28;20020;-73
2021/10/18 03:11:39;;;;;;;0.20;0.20;;;8.50;99.90;;;;;;5093456;28;20030;-73
2021/10/18 03:14:05;;;;;;;0.22;0.22;;;8.50;99.90;;;;;;5094695;28;20091;-73
2021/10/18 03:16:32;;;;;;;0.30;0.30;;;8.50;99.90;;;;;;5093203;28;20072;-73
2021/10/18 03:18:58;;;;;;;0.43;0.43;;;8.60;99.90;;;;;;5093228;28;20032;-73
2021/10/18 03:21:24;;;;;;;0.30;0.30;;;8.50;99.90;;;;;;5094603;28;20123;-73
2021/10/18 03:23:49;;;;;;;0.30;0.30;;;8.50;99.90;;;;;;5094581;28;20103;-73
2021/10/18 03:26:15;;;;;;;0.28;0.28;;;8.40;99.90;;;;;;5093080;28;20024;-73
2021/10/18 03:28:44;;;;;;;0.50;0.50;;;8.40;99.90;;;;;;5093006;28;20020;-73
2021/10/18 03:31:10;;;;;;;0.30;0.30;;;8.40;99.90;;;;;;5094477;28;20090;-73
2021/10/18 03:33:38;;;;;;;0.20;0.20;;;8.40;99.90;;;;;;5094435;28;20024;-73
2021/10/18 03:36:05;;;;;;;0.30;0.30;;;8.60;99.90;;;;;;5093981;28;20029;-73
2021/10/18 03:38:31;;;;;;;0.30;0.30;;;8.40;99.90;;;;;;5092881;28;20107;-73
2021/10/18 03:40:57;;;;;;;0.22;0.22;;;8.40;99.90;;;;;;5094222;28;20586;-73
2021/10/18 03:43:22;;;;;;;0.30;0.30;;;8.40;99.90;;;;;;5094205;28;20028;-73
2021/10/18 03:45:48;;;;;;;0.20;0.20;;;8.30;99.90;;;;;;5092673;28;20048;-73
2021/10/18 03:48:14;;;;;;;0.30;0.30;;;8.40;99.90;;;;;;5094212;28;20032;-73
2021/10/18 03:50:41;;;;;;;0.22;0.22;;;8.40;99.90;;;;;;5092961;28;20036;-73
2021/10/18 03:53:07;;;;;;;0.20;0.20;;;8.30;99.90;;;;;;5093973;28;20017;-73
2021/10/18 03:55:32;;;;;;;1.30;1.30;;;8.30;99.90;;;;;;5092476;28;20077;-73
2021/10/18 03:57:58;;;;;;;0.20;0.20;;;8.20;99.90;;;;;;5093801;28;20514;-73
2021/10/18 04:00:24;;;;;;;0.63;0.63;;;8.00;99.90;;;;;;5093835;28;20425;-73
2021/10/18 04:02:50;;;;;;;0.20;0.20;;;8.10;99.90;;;;;;5093795;28;20046;-73
2021/10/18 04:05:16;;;;;;;0.20;0.20;;;8.10;99.90;;;;;;5075474;28;20531;-73
2021/10/18 04:07:46;;;;;;;0.20;0.20;;;8.10;99.90;;;;;;5093583;28;20036;-73
2021/10/18 04:10:12;;;;;;;0.20;0.20;;;8.20;99.90;;;;;;5093612;28;20598;-73
2021/10/18 04:12:38;;;;;;;0.20;0.20;;;8.20;99.90;;;;;;5092388;28;20055;-74
2021/10/18 04:15:04;;;;;;;0.20;0.20;;;8.10;99.90;;;;;;5093416;28;20483;-74
2021/10/18 04:17:30;;;;;;;0.20;0.20;;;8.20;99.90;;;;;;5075474;28;20119;-73
2021/10/18 04:19:56;;;;;;;0.30;0.30;;;8.30;99.90;;;;;;5093402;28;20051;-73
2021/10/18 04:22:22;;;;;;;0.20;0.20;;;8.40;99.90;;;;;;5093485;28;20051;-73
2021/10/18 04:24:48;;;;;;;0.30;0.30;;;8.40;99.90;;;;;;5093163;28;20031;-74
2021/10/18 04:27:13;;;;;;;0.20;0.20;;;8.50;99.90;;;;;;5091910;28;20123;-74
2021/10/18 04:29:39;;;;;;;0.20;0.20;;;8.60;99.90;;;;;;5093297;28;20035;-74
2021/10/18 04:32:05;;;;;;;0.30;0.30;;;8.70;99.90;;;;;;5091950;28;20062;-74
2021/10/18 04:34:31;;;;;;;0.20;0.20;;;8.60;99.90;;;;;;5091644;28;20029;-74
2021/10/18 04:36:56;;;;;;;0.20;0.20;;;8.70;99.90;;;;;;5091829;28;20024;-73
2021/10/18 04:39:23;;;;;;;0.20;0.20;;;8.80;99.90;;;;;;5091860;28;20480;-74
2021/10/18 04:41:49;;;;;;;0.20;0.20;;;8.90;99.90;;;;;;5093101;28;20077;-73
2021/10/18 04:44:15;;;;;;;0.28;0.28;;;8.90;99.90;;;;;;5092959;28;20383;-74
2021/10/18 04:46:41;;;;;;;0.30;0.30;;;8.80;99.90;;;;;;5092670;28;20028;-74
2021/10/18 04:49:07;;;;;;;0.30;0.30;;;8.70;99.90;;;;;;5092651;28;20024;-74
2021/10/18 04:51:32;;;;;;;0.30;0.30;;;8.50;99.90;;;;;;5091644;28;20165;-74
2021/10/18 04:53:58;;;;;;;0.63;0.63;;;8.60;99.90;;;;;;5092785;28;20027;-74
2021/10/18 04:56:24;;;;;;;0.30;0.30;;;8.50;99.90;;;;;;5091277;28;20020;-74
2021/10/18 04:58:50;;;;;;;0.75;0.75;;;8.30;99.90;;;;;;5091536;28;20028;-74
2021/10/18 05:01:15;;;;;;;0.70;0.70;;;8.40;99.90;;;;;;5091422;28;20502;-74
2021/10/18 05:03:41;;;;;;;1.13;0.82;;;8.50;99.90;;;;;;5091293;28;20028;-74
2021/10/18 05:06:07;;;;;;;0.30;0.30;;;8.50;99.90;;;;;;5091087;28;20024;-74
2021/10/18 05:08:33;;;;;;;0.68;0.68;;;8.60;99.90;;;;;;5092405;28;20042;-74
2021/10/18 05:10:58;;;;;;;0.30;0.30;;;8.70;99.90;;;;;;5092575;28;20028;-73
2021/10/18 05:13:25;;;;;;;0.38;0.38;;;8.60;99.90;;;;;;5092576;28;20085;-74
2021/10/18 05:15:52;;;;;;;0.20;0.20;;;8.70;99.90;;;;;;5092207;28;20028;-73
2021/10/18 05:18:19;;;;;;;0.30;0.30;;;8.90;99.90;;;;;;5091737;28;20027;-74
2021/10/18 05:20:46;;;;;;;0.20;0.20;;;8.80;99.90;;;;;;5092203;28;20043;-74
2021/10/18 05:23:11;;;;;;;0.30;0.30;;;8.70;99.90;;;;;;5091045;28;20035;-74
2021/10/18 05:25:37;;;;;;;0.30;0.30;;;8.60;99.90;;;;;;5092066;28;20024;-73
2021/10/18 05:28:04;;;;;;;0.17;0.17;;;8.70;99.90;;;;;;5092041;28;20028;-73
2021/10/18 05:30:30;;;;;;;0.20;0.20;;;8.60;99.90;;;;;;5090878;28;20336;-73
2021/10/18 05:32:57;;;;;;;0.20;0.20;;;8.70;99.90;;;;;;5092117;28;20020;-73
2021/10/18 05:35:24;;;;;;;0.28;0.28;;;8.70;99.90;;;;;;5090668;28;20063;-73
2021/10/18 05:37:50;;;;;;;2.72;0.80;;;8.50;99.90;;;;;;5090770;28;20437;-73
2021/10/18 05:40:18;;;;;;;0.20;0.20;;;8.40;99.90;;;;;;5092069;28;20027;-73
2021/10/18 05:42:44;;;;;;;0.30;0.30;;;8.40;99.90;;;;;;5073959;28;20031;-73
2021/10/18 05:45:11;;;;;;;0.20;0.20;;;8.50;99.90;;;;;;5091384;28;20440;-74
2021/10/18 05:48:00;;;;;;;6.45;0.65;;;8.60;99.90;;;;;;5090437;28;20028;-74
2021/10/18 05:50:32;;;;;;;0.20;0.20;;;8.70;99.90;;;;;;5090711;28;20023;-74
2021/10/18 05:52:58;;;;;;;0.20;0.20;;;8.80;99.90;;;;;;5091792;28;20139;-74
2021/10/18 05:55:25;;;;;;;0.20;0.20;;;8.90;99.90;;;;;;5091671;28;20024;-73
2021/10/18 05:57:54;;;;;;;0.20;0.20;;;9.00;99.90;;;;;;5091945;28;20035;-73
2021/10/18 06:00:21;;;;;;;0.20;0.20;;;9.00;99.90;;;;;;5091905;28;20495;-73
2021/10/18 06:02:47;;;;;;;0.20;0.20;;;9.10;99.90;;;;;;5091867;28;20032;-73
2021/10/18 06:05:13;;;;;;;0.50;0.50;;;9.10;99.90;;;;;;5090245;28;20024;-73
2021/10/18 06:07:39;;;;;;;9.00;8.10;;;9.20;99.90;;;;;;5091734;28;20024;-73
2021/10/18 06:10:06;;;;;;;0.20;0.20;;;9.10;99.90;;;;;;5092669;28;20020;-73
2021/10/18 06:12:32;;;;;;;0.20;0.20;;;9.20;99.90;;;;;;5092796;28;20024;-73
2021/10/18 06:14:57;;;;;;;1.55;1.38;;;9.10;99.90;;;;;;5092795;28;20379;-73
2021/10/18 06:17:23;;;;;;;0.10;0.10;;;9.10;99.90;;;;;;5097033;28;20375;-73
2021/10/18 06:19:49;;;;;;;0.20;0.20;;;9.00;99.90;;;;;;5104935;28;20028;-73
2021/10/18 06:22:15;;;;;;;0.28;0.28;;;8.90;99.90;;;;;;5090289;28;20551;-73
2021/10/18 06:24:41;;;;;;;0.20;0.20;;;8.80;99.90;;;;;;5100573;28;20020;-73
2021/10/18 06:27:07;;;;;;;0.20;0.20;;;8.80;99.90;;;;;;5095005;28;20016;-73
2021/10/18 06:29:32;;;;;;;0.77;0.77;;;8.70;99.90;;;;;;5090897;28;20498;-73
2021/10/18 06:31:58;;;;;;;0.30;0.30;;;8.90;99.90;;;;;;5095074;28;20024;-73
2021/10/18 06:34:26;;;;;;;0.43;0.43;;;9.00;99.90;;;;;;5095147;28;20020;-73
2021/10/18 06:36:51;;;;;;;0.20;0.20;;;9.00;99.90;;;;;;5095038;28;20024;-73
2021/10/18 06:39:17;;;;;;;0.50;0.50;;;9.00;99.90;;;;;;5095163;28;20103;-73
2021/10/18 06:41:43;;;;;;;0.20;0.20;;;9.00;99.90;;;;;;5095348;28;20024;-73
2021/10/18 06:44:08;;;;;;;0.20;0.20;;;9.00;99.90;;;;;;5110423;28;20023;-73
2021/10/18 06:46:34;;;;;;;0.30;0.30;;;9.10;99.90;;;;;;5114054;28;20028;-73
2021/10/18 06:49:00;;;;;;;0.30;0.30;;;9.20;99.90;;;;;;5114401;28;20028;-73
2021/10/18 06:51:32;;;;;;;0.20;0.20;;;9.10;99.90;;;;;;5093433;28;20044;-73
2021/10/18 06:53:58;;;;;;;1.23;1.23;;;9.20;99.90;;;;;;5095163;28;20426;-74
2021/10/18 06:56:23;;;;;;;0.98;0.98;;;9.30;99.90;;;;;;5094682;28;20024;-73
2021/10/18 06:58:49;;;;;;;0.20;0.20;;;9.30;99.90;;;;;;5076687;28;20115;-73
2021/10/18 07:01:15;;;;;;;0.20;0.20;;;9.40;99.90;;;;;;5093506;28;20118;-73
2021/10/18 07:03:41;;;;;;;0.30;0.30;;;9.50;99.90;;;;;;5094855;28;20421;-73
2021/10/18 07:06:07;;;;;;;0.50;0.50;;;9.50;99.90;;;;;;5094573;28;20217;-73
2021/10/18 07:08:33;;;;;;;0.20;0.20;;;9.50;99.90;;;;;;5094490;28;20365;-73
2021/10/18 07:10:59;;;;;;;0.20;0.20;;;9.50;99.90;;;;;;5094353;28;20020;-73
2021/10/18 07:13:25;;;;;;;0.20;0.20;;;9.70;99.90;;;;;;5091974;28;20020;-73
2021/10/18 07:15:50;;;;;;;0.20;0.20;;;9.80;99.90;;;;;;5091512;28;20054;-73
2021/10/18 07:18:16;;;;;;;0.20;0.20;;;9.90;99.90;;;;;;5097505;28;20097;-73
2021/10/18 07:20:42;;;;;;;0.20;0.20;;;9.90;99.90;;;;;;5092854;28;20032;-73
2021/10/18 07:23:10;;;;;;;0.10;0.10;;;9.90;99.90;;;;;;5093737;28;20036;-75
2021/10/18 07:25:37;;;;;;;0.82;0.82;;;10.00;99.90;;;;;;5091227;28;20445;-73
2021/10/18 07:28:04;;;;;;;0.20;0.20;;;10.10;99.90;;;;;;5092916;28;20388;-73
2021/10/18 07:30:30;;;;;;;0.20;0.20;;;10.10;99.90;;;;;;5092668;28;20016;-73
2021/10/18 07:32:56;;;;;;;0.20;0.20;;;10.20;99.90;;;;;;5093292;28;20030;-73
2021/10/18 07:35:28;;;;;;;0.10;0.10;;;10.40;99.90;;;;;;5091255;28;20543;-72
2021/10/18 07:37:54;;;;;;;0.20;0.20;;;10.50;99.90;;;;;;5092750;28;20028;-73
2021/10/18 07:40:22;;;;;;;0.10;0.10;;;10.50;99.90;;;;;;5092343;28;20026;-73
2021/10/18 07:42:47;;;;;;;0.30;0.30;;;10.60;99.90;;;;;;5090905;28;20076;-73
2021/10/18 07:45:13;;;;;;;0.20;0.20;;;10.70;99.90;;;;;;5074110;28;20024;-76
2021/10/18 07:47:41;;;;;;;0.20;0.20;;;10.70;99.90;;;;;;5092527;28;20040;-74
2021/10/18 07:50:10;;;;;;;0.20;0.20;;;10.70;99.90;;;;;;5091339;28;20020;-73
2021/10/18 07:52:39;;;;;;;0.20;0.20;;;10.70;99.90;;;;;;5092717;28;20024;-73
2021/10/18 07:55:12;;;;;;;0.28;0.28;;;10.90;99.90;;;;;;5091996;28;20024;-74
2021/10/18 07:57:40;;;;;;;0.20;0.20;;;11.00;99.90;;;;;;5092556;28;20027;-73
2021/10/18 08:00:06;;;;;;;0.20;0.20;;;11.00;99.90;;;;;;5091675;28;20024;-73
2021/10/18 08:02:32;;;;;;;0.15;0.15;;;11.10;99.90;;;;;;5074581;28;20120;-73
2021/10/18 08:04:58;;;;;;;0.20;0.20;;;11.10;99.90;;;;;;5091925;28;20059;-73
2021/10/18 08:07:28;;;;;;;0.17;0.17;;;11.20;99.90;;;;;;5091047;28;20036;-74
2021/10/18 08:09:55;;;;;;;0.35;0.35;;;11.40;99.90;;;;;;5092118;28;20036;-73
2021/10/18 08:12:21;;;;;;;0.25;0.17;;;11.40;99.90;;;;;;5092069;28;20027;-73
2021/10/18 08:14:46;;;;;;;0.20;0.20;;;11.40;99.90;;;;;;5091864;28;20024;-73
2021/10/18 08:17:12;;;;;;;0.20;0.20;;;11.40;99.90;;;;;;5092456;28;20043;-73
2021/10/18 08:19:38;;;;;;;2.05;1.95;;;11.50;99.90;;;;;;5091811;28;20024;-73
2021/10/18 08:22:04;;;;;;;0.20;0.20;;;11.50;99.90;;;;;;5092337;28;20035;-73
2021/10/18 08:24:29;;;;;;;0.20;0.20;;;11.60;99.90;;;;;;5091205;28;20031;-73
2021/10/18 08:26:55;;;;;;;0.15;0.15;;;11.60;99.90;;;;;;5091883;28;20016;-73
2021/10/18 08:29:21;;;;;;;1.25;1.17;;;11.60;99.90;;;;;;5090543;28;20056;-73
2021/10/18 08:31:46;;;;;;;0.30;0.30;;;11.70;99.90;;;;;;5090358;28;20028;-74
2021/10/18 08:34:12;;;;;;;0.20;0.20;;;11.90;99.90;;;;;;5092047;28;20422;-73
2021/10/18 08:36:38;;;;;;;1.85;0.90;;;11.90;99.90;;;;;;5091252;28;20016;-73
2021/10/18 08:41:56;;;;;;;0.50;0.50;;;12.00;99.90;;;;;;5090112;28;20035;-73
2021/10/18 08:44:22;;;;;;;0.20;0.20;;;12.20;99.90;;;;;;5091756;28;20407;-73
2021/10/18 08:46:52;;;;;;;2.03;1.80;;;12.30;99.90;;;;;;5072595;28;20024;-73
2021/10/18 08:49:19;;;;;;;0.20;0.20;;;12.40;99.90;;;;;;5090124;28;20028;-73
2021/10/18 08:51:46;;;;;;;0.70;0.70;;;12.40;99.90;;;;;;5091019;28;20081;-73
2021/10/18 08:54:12;;;;;;;1.05;0.88;;;12.50;99.90;;;;;;5089461;28;20020;-73
2021/10/18 08:56:38;;;;;;;0.10;0.10;;;12.60;99.90;;;;;;5089838;28;20035;-73
2021/10/18 08:59:05;;;;;;;1.35;1.23;;;12.70;99.90;;;;;;5091258;28;20050;-72
2021/10/18 09:01:43;;;;;;;0.10;0.10;;;12.70;99.90;;;;;;5091150;28;20024;-72
2021/10/18 09:04:30;;;;;;;0.20;0.20;;;12.80;99.90;;;;;;5091493;28;20020;-73
2021/10/18 09:07:02;;;;;;;5.50;3.08;;;12.90;99.90;;;;;;5090539;28;20500;-73
2021/10/18 09:09:42;;;;;;;0.20;0.20;;;12.80;99.90;;;;;;5091321;28;20035;-73
2021/10/18 09:12:32;;;;;;;0.30;0.30;;;12.70;99.90;;;;;;5089633;28;20107;-73
2021/10/18 09:15:20;;;;;;;0.30;0.30;;;13.10;99.90;;;;;;5090172;28;20099;-73
2021/10/18 09:17:58;;;;;;;0.20;0.20;;;13.20;99.90;;;;;;5090835;28;20472;-73
2021/10/18 09:20:35;;;;;;;2.80;2.55;;;13.10;99.90;;;;;;5090737;28;20558;-73
2021/10/18 09:23:40;;;;;;;0.73;0.73;;;13.00;99.90;;;;;;5090855;28;20067;-73
2021/10/18 09:26:15;;;;;;;0.28;0.28;;;13.00;99.90;;;;;;5089446;28;20028;-73
2021/10/18 09:28:40;;;;;;;0.10;0.10;;;13.10;99.90;;;;;;5090899;28;20032;-73
2021/10/18 09:31:16;;;;;;;0.25;0.25;;;13.60;99.90;;;;;;5072480;28;20042;-75
2021/10/18 09:33:46;;;;;;;0.17;0.17;;;14.20;99.90;;;;;;5085916;28;20426;-73
2021/10/18 09:36:19;;;;;;;0.85;0.73;;;15.00;99.90;;;;;;5090230;28;20012;-73
2021/10/18 09:38:44;;;;;;;1.75;1.05;;;15.50;99.90;;;;;;5089550;28;20107;-73
2021/10/18 09:41:10;;;;;;;0.10;0.10;;;15.10;99.90;;;;;;5090092;28;20115;-73
2021/10/18 09:43:39;;;;;;;0.30;0.30;;;15.00;99.90;;;;;;5089279;28;20111;-73
2021/10/18 09:46:16;;;;;;;0.75;0.75;;;15.30;99.90;;;;;;5090154;28;20055;-73
2021/10/18 10:54:03;;;;;;;3.22;1.70;;;21.40;64.10;;;;;;5093517;28;20478;-74
2021/10/18 10:56:51;;;;;;;0.08;0.08;;;21.80;62.00;;;;;;5092396;28;20429;-74
2021/10/18 10:59:28;;;;;;;0.45;0.45;;;22.00;61.00;;;;;;5091931;28;20020;-73
2021/10/18 11:02:11;;;;;;;6.22;3.15;;;21.50;61.60;;;;;;5093639;28;20392;-74
2021/10/18 11:04:39;;;;;;;0.32;0.32;;;21.10;63.00;;;;;;5090938;28;20491;-74
2021/10/18 11:07:34;;;;;;;0.20;0.20;;;21.40;63.10;;;;;;5094966;28;20115;-74
2021/10/18 11:10:00;;;;;;;0.52;0.52;;;22.00;60.40;;;;;;5092238;28;20027;-73
2021/10/18 11:12:32;;;;;;;0.10;0.10;;;21.70;61.40;;;;;;5092249;28;20028;-73
2021/10/18 11:15:08;;;;;;;0.47;0.47;;;21.60;60.60;;;;;;5093944;28;20039;-74
2021/10/18 11:17:39;;;;;;;32.08;1.30;;;22.10;59.60;;;;;;5092462;28;20024;-74
2021/10/18 11:20:09;;;;;;;;;;;22.50;58.40;;;;;;5092813;28;20028;-74
2021/10/18 11:22:40;;;;;;;2.47;2.05;;;22.70;57.80;;;;;;5093496;28;19947;-74
2021/10/18 11:25:18;;;;;;;0.75;0.73;;;23.20;56.80;;;;;;5086697;28;20035;-73
2021/10/18 11:27:49;;;;;;;0.43;0.43;;;23.70;55.20;;;;;;5089152;28;20064;-73
2021/10/18 11:30:17;;;;;;;2.05;1.33;;;23.90;54.70;;;;;;5090944;28;20021;-73
2021/10/18 11:32:57;;;;;;;0.55;0.55;;;23.60;53.80;;;;;;5092482;28;20077;-73
2021/10/18 11:35:23;;;;;;;3.65;2.15;;;23.20;55.10;;;;;;5092751;28;20047;-74
2021/10/18 11:38:02;;;;;;;1.30;1.20;;;23.10;55.80;;;;;;5074355;28;20047;-74
2021/10/18 11:40:43;;;;;;;2.30;2.03;;;22.90;55.00;;;;;;5090027;28;20085;-74
2021/10/18 11:43:19;;;;;;;3.58;1.95;;;23.10;55.00;;;;;;5091031;28;20024;-74
2021/10/18 11:45:47;;;;;;;1.05;0.98;;;23.30;54.20;;;;;;5091643;28;20036;-74
2021/10/18 11:48:13;;;;;;;2.17;1.30;;;23.50;53.20;;;;;;5090837;28;20115;-73
2021/10/18 11:50:41;;;;;;;0.00;0.00;;;23.70;52.30;;;;;;5091739;28;20020;-74
2021/10/18 11:53:15;;;;;;;2.38;2.22;;;24.00;51.80;;;;;;5092471;28;20016;-74
2021/10/18 11:55:49;;;;;;;2.05;1.90;;;24.20;51.00;;;;;;5093114;28;20024;-74
2021/10/18 11:58:19;;;;;;;0.57;0.57;;;23.90;51.60;;;;;;5090539;28;20059;-74
2021/10/18 12:00:44;;;;;;;1.20;1.05;;;23.80;52.00;;;;;;5095547;28;20031;-72
2021/10/18 12:03:14;;;;;;;1.65;1.38;;;23.40;52.20;;;;;;5091916;28;20393;-72
2021/10/18 12:05:42;;;;;;;0.57;0.50;;;23.40;51.70;;;;;;5091103;28;20060;-72
2021/10/18 12:08:13;;;;;;;0.63;0.43;;;23.40;52.90;;;;;;5090598;28;20111;-72
2021/10/18 12:10:41;;;;;;;3.45;0.60;;;23.70;51.70;;;;;;5092278;28;20069;-72
2021/10/18 12:13:20;;;;;;;1.95;1.25;;;23.70;52.20;;;;;;5091822;28;20402;-72
2021/10/18 12:16:07;;;;;;;0.20;0.20;;;23.30;53.80;;;;;;5092247;28;20024;-72
2021/10/18 12:18:38;;;;;;;0.80;0.80;;;23.30;55.10;;;;;;5089365;28;20054;-72
2021/10/18 12:21:08;;;;;;;2.70;2.17;;;23.90;53.10;;;;;;5091929;28;20031;-72
2021/10/18 12:23:58;;;;;;;0.77;0.57;;;23.40;51.70;;;;;;5090403;28;20077;-72
2021/10/18 12:26:29;;;;;;;0.10;0.10;;;23.80;51.60;;;;;;5090514;28;20442;-72
2021/10/18 12:28:56;;;;;;;1.08;1.08;;;24.10;52.70;;;;;;5089209;28;20126;-72
2021/10/18 12:31:42;;;;;;;0.05;0.05;;;24.20;53.10;;;;;;5091957;28;20024;-72
2021/10/18 12:34:21;;;;;;;0.00;0.00;;;24.60;52.90;;;;;;5091769;28;20077;-72
2021/10/18 12:37:06;;;;;;;0.40;0.40;;;24.60;52.70;;;;;;5091946;28;20629;-72
2021/10/18 12:39:43;;;;;;;0.00;0.00;;;24.80;52.20;;;;;;5091430;28;20032;-72
2021/10/18 12:42:21;;;;;;;0.10;0.10;;;24.70;51.70;;;;;;5090500;28;20024;-72
2021/10/18 12:45:08;;;;;;;0.15;0.13;;;24.10;53.20;;;;;;5089928;28;20096;-72
2021/10/18 12:47:37;;;;;;;0.95;0.90;;;23.60;54.20;;;;;;5091613;28;20027;-72
2021/10/18 12:50:04;;;;;;;1.50;1.08;;;23.40;55.00;;;;;;5091174;28;20020;-72
2021/10/18 12:52:37;;;;;;;0.20;0.20;;;23.20;55.40;;;;;;5091596;28;20020;-72
2021/10/18 12:55:26;;;;;;;2.67;2.00;;;23.60;54.70;;;;;;5091019;28;20104;-72
2021/10/18 12:57:56;;;;;;;0.00;0.00;;;23.10;54.70;;;;;;5091418;28;20440;-72
2021/10/18 13:00:30;;;;;;;0.20;0.20;;;22.60;56.40;;;;;;5091129;28;20024;-72
2021/10/18 13:03:19;;;;;;;0.20;0.20;;;21.90;58.20;;;;;;5091443;28;20024;-72
2021/10/18 13:05:57;;;;;;;0.65;0.28;;;21.70;59.00;;;;;;5090839;28;20052;-72
2021/10/18 13:08:25;;;;;;;7.05;1.80;;;20.60;60.70;;;;;;5091287;28;20055;-72
2021/10/18 13:10:52;;;;;;;0.47;0.47;;;20.40;62.10;;;;;;5090835;28;20016;-72
2021/10/18 13:13:22;;;;;;;0.10;0.10;;;20.00;63.30;;;;;;5091283;28;20031;-72
2021/10/18 13:15:50;;;;;;;0.52;0.30;;;20.00;64.40;;;;;;5088792;28;20102;-72
2021/10/18 13:18:17;;;;;;;0.25;0.25;;;19.60;65.60;;;;;;5091244;28;20016;-72
2021/10/18 13:20:44;;;;;;;0.15;0.15;;;19.60;66.70;;;;;;5090508;28;20107;-72
2021/10/18 13:23:11;;;;;;;0.40;0.40;;;19.40;67.40;;;;;;5092265;28;20024;-72
2021/10/18 13:25:40;;;;;;;0.68;0.68;;;19.50;66.50;;;;;;5090246;28;20089;-72
2021/10/18 13:28:08;;;;;;;0.85;0.77;;;19.20;66.60;;;;;;5090987;28;20036;-72
2021/10/18 13:30:34;;;;;;;1.05;0.30;;;19.20;67.80;;;;;;5090500;28;20165;-72
2021/10/18 13:33:00;;;;;;;3.15;2.17;;;19.30;67.50;;;;;;5090958;28;20056;-72
2021/10/18 13:35:27;;;;;;;0.20;0.20;;;19.20;67.10;;;;;;5088913;28;20047;-72
2021/10/18 13:37:53;;;;;;;0.93;0.93;;;18.90;68.10;;;;;;5089651;28;20038;-72
2021/10/18 13:40:22;;;;;;;0.17;0.17;;;18.60;69.60;;;;;;5071831;28;20383;-73
2021/10/18 13:42:48;;;;;;;0.20;0.20;;;18.50;71.30;;;;;;5089660;28;20040;-73
2021/10/18 13:45:16;;;;;;;0.17;0.17;;;18.60;71.10;;;;;;5088636;28;20382;-73
2021/10/18 13:47:42;;;;;;;0.28;0.28;;;18.80;69.90;;;;;;5089955;28;20089;-74
2021/10/18 13:50:09;;;;;;;1.38;1.30;;;18.60;70.50;;;;;;5089223;28;20079;-73
2021/10/18 13:52:35;;;;;;;24.55;1.45;;;18.30;71.90;;;;;;5090857;28;20044;-73
2021/10/18 13:55:02;;;;;;;8.07;2.17;;;18.30;71.60;;;;;;5088703;28;20024;-73
2021/10/18 13:57:31;;;;;;;0.65;0.30;;;18.10;72.60;;;;;;5090364;28;20028;-73
2021/10/18 13:59:56;;;;;;;0.20;0.20;;;18.00;72.90;;;;;;5090220;28;20387;-74
2021/10/18 14:02:22;;;;;;;0.10;0.10;;;17.90;73.60;;;;;;5090843;28;20028;-74
2021/10/18 14:04:48;;;;;;;0.20;0.20;;;17.70;74.40;;;;;;5072029;28;20151;-73
2021/10/18 14:07:15;;;;;;;0.10;0.10;;;17.40;74.90;;;;;;5089567;28;20024;-74